Time;durP1;ratioP1;P1;durP2;ratioP2;P2;SDS_P1;SDS_P2;PMS_P1;PMS_P2;Temp;Humidity;BMP_temperature;BMP_pressure;BME280_temperature;BME280_humidity;BME280_pressure;Samples;Min_cycle;Max_cycle;Signal;HPM_P1;HPM_P2
2020/12/04 00:00:21;;;;;;;85.55;41.20;;;-0.50;91.90;;;;;;2071851;28;20060;-69
2020/12/04 00:01:21;;;;;;;86.50;40.95;;;-0.50;91.90;;;;;;2071772;28;20041;-69
2020/12/04 00:02:22;;;;;;;91.35;42.45;;;-0.50;91.90;;;;;;2072371;28;20029;-69
2020/12/04 00:03:23;;;;;;;86.72;41.90;;;-0.50;91.90;;;;;;2071773;28;20057;-69
2020/12/04 00:04:23;;;;;;;92.07;42.50;;;-0.50;91.90;;;;;;2072244;28;20468;-69
2020/12/04 00:05:24;;;;;;;92.03;42.38;;;-0.50;91.90;;;;;;2072501;28;20496;-69
2020/12/04 00:06:25;;;;;;;91.50;43.13;;;-0.50;91.90;;;;;;2072473;28;20080;-69
2020/12/04 00:07:26;;;;;;;90.40;42.13;;;-0.50;92.00;;;;;;2072513;28;20734;-69
2020/12/04 00:08:27;;;;;;;86.35;42.53;;;-0.50;92.00;;;;;;2072602;28;20028;-69
2020/12/04 00:09:27;;;;;;;88.20;42.03;;;-0.50;92.00;;;;;;2072035;28;20072;-69
2020/12/04 00:10:28;;;;;;;99.20;44.55;;;-0.60;92.00;;;;;;2072732;28;20041;-69
2020/12/04 00:11:35;;;;;;;93.30;42.88;;;-0.60;92.00;;;;;;2072642;28;20362;-69
2020/12/04 00:12:37;;;;;;;101.18;44.25;;;-0.60;92.10;;;;;;2071692;28;20103;-69
2020/12/04 00:13:38;;;;;;;96.05;43.22;;;-0.60;92.10;;;;;;2072342;28;20165;-69
2020/12/04 00:14:39;;;;;;;93.75;42.35;;;-0.60;92.10;;;;;;2072269;28;20693;-69
2020/12/04 00:15:40;;;;;;;105.82;45.08;;;-0.60;92.10;;;;;;2072409;28;20033;-69
2020/12/04 00:16:41;;;;;;;91.53;41.80;;;-0.60;92.10;;;;;;2072288;28;20105;-69
2020/12/04 00:17:41;;;;;;;90.40;42.38;;;-0.60;92.10;;;;;;2072282;28;20100;-69
2020/12/04 00:18:42;;;;;;;91.35;43.45;;;-0.60;92.10;;;;;;2072087;28;20034;-69
2020/12/04 00:19:43;;;;;;;95.40;43.03;;;-0.60;92.10;;;;;;2071832;28;20022;-69
2020/12/04 00:20:43;;;;;;;92.40;43.17;;;-0.60;92.20;;;;;;2072008;28;20022;-69
2020/12/04 00:21:48;;;;;;;89.72;42.50;;;-0.60;92.30;;;;;;2072192;28;20112;-69
2020/12/04 00:22:50;;;;;;;89.60;42.75;;;-0.60;92.20;;;;;;2071610;28;20029;-69
2020/12/04 00:23:51;;;;;;;95.07;43.92;;;-0.60;92.30;;;;;;2072293;28;20022;-69
2020/12/04 00:24:52;;;;;;;97.65;44.63;;;-0.60;92.20;;;;;;2072306;28;20032;-69
2020/12/04 00:25:53;;;;;;;95.07;44.17;;;-0.60;92.20;;;;;;2072188;28;20132;-68
2020/12/04 00:26:54;;;;;;;92.13;43.38;;;-0.60;92.40;;;;;;2072219;28;20749;-68
2020/12/04 00:27:55;;;;;;;93.57;43.83;;;-0.60;92.50;;;;;;2072050;28;20136;-68
2020/12/04 00:28:55;;;;;;;91.63;43.50;;;-0.60;92.50;;;;;;2071753;28;20025;-68
2020/12/04 00:29:56;;;;;;;115.75;48.95;;;-0.60;92.50;;;;;;2071780;28;20501;-68
2020/12/04 00:30:57;;;;;;;94.00;44.85;;;-0.60;92.50;;;;;;2072320;28;20113;-68
2020/12/04 00:31:57;;;;;;;95.38;45.35;;;-0.60;92.50;;;;;;2072368;28;20025;-69
2020/12/04 00:32:58;;;;;;;98.70;45.95;;;-0.60;92.50;;;;;;2071800;28;20105;-69
2020/12/04 00:34:00;;;;;;;97.03;43.78;;;-0.60;92.40;;;;;;2072461;28;20025;-69
2020/12/04 00:35:00;;;;;;;96.55;44.78;;;-0.60;92.40;;;;;;2072109;28;20022;-68
2020/12/04 00:36:01;;;;;;;100.57;46.33;;;-0.60;92.40;;;;;;2071418;28;20092;-68
2020/12/04 00:37:02;;;;;;;98.78;45.13;;;-0.60;92.50;;;;;;2070896;28;20112;-68
2020/12/04 00:38:03;;;;;;;98.43;45.55;;;-0.60;92.50;;;;;;2071492;28;20501;-68
2020/12/04 00:39:04;;;;;;;93.70;45.00;;;-0.60;92.50;;;;;;2071099;28;20529;-69
2020/12/04 00:40:04;;;;;;;97.22;45.38;;;-0.60;92.60;;;;;;2071894;28;20033;-68
2020/12/04 00:41:05;;;;;;;113.25;48.42;;;-0.60;92.60;;;;;;2071176;28;20026;-69
2020/12/04 00:42:06;;;;;;;99.65;46.33;;;-0.60;92.60;;;;;;2071492;28;20048;-68
2020/12/04 00:43:07;;;;;;;107.55;46.95;;;-0.60;92.60;;;;;;2071017;28;20069;-68
2020/12/04 00:44:08;;;;;;;100.68;46.00;;;-0.60;92.70;;;;;;2071270;28;20026;-68
2020/12/04 00:45:08;;;;;;;94.13;45.42;;;-0.60;92.70;;;;;;2071704;28;20033;-68
2020/12/04 00:46:13;;;;;;;94.70;44.30;;;-0.60;92.70;;;;;;2072158;28;20041;-68
2020/12/04 00:47:14;;;;;;;98.82;46.05;;;-0.60;92.70;;;;;;2071197;28;20028;-68
2020/12/04 00:48:15;;;;;;;93.60;45.05;;;-0.60;92.70;;;;;;2070746;28;20520;-68
2020/12/04 00:49:16;;;;;;;97.45;44.58;;;-0.60;92.70;;;;;;2071350;28;20061;-68
2020/12/04 00:50:17;;;;;;;94.40;46.08;;;-0.60;92.70;;;;;;2072031;28;20026;-68
2020/12/04 00:51:18;;;;;;;101.07;46.38;;;-0.60;92.70;;;;;;2072044;28;20025;-69
2020/12/04 00:52:18;;;;;;;96.07;44.80;;;-0.60;92.70;;;;;;2071609;28;20582;-69
2020/12/04 00:53:20;;;;;;;103.10;47.88;;;-0.60;92.70;;;;;;2071248;28;20018;-68
2020/12/04 00:54:24;;;;;;;101.15;47.15;;;-0.60;92.70;;;;;;2063403;28;20528;-72
2020/12/04 00:55:25;;;;;;;100.38;46.60;;;-0.60;92.70;;;;;;2071329;28;20473;-68
2020/12/04 00:56:33;;;;;;;96.93;46.03;;;-0.60;92.80;;;;;;2070836;28;20033;-68
2020/12/04 00:57:38;;;;;;;98.68;45.38;;;-0.60;92.80;;;;;;2071230;28;20049;-68
2020/12/04 00:58:39;;;;;;;101.28;46.38;;;-0.60;92.80;;;;;;2071352;28;20449;-68
2020/12/04 00:59:40;;;;;;;99.03;45.85;;;-0.60;92.80;;;;;;2079241;28;20017;-68
2020/12/04 01:00:48;;;;;;;104.10;47.35;;;-0.60;92.90;;;;;;2079593;28;20033;-68
2020/12/04 01:01:52;;;;;;;100.82;46.97;;;-0.60;92.90;;;;;;2071101;28;20026;-67
2020/12/04 01:02:56;;;;;;;97.18;45.10;;;-0.60;93.00;;;;;;2070510;28;20022;-68
2020/12/04 01:03:56;;;;;;;97.75;45.55;;;-0.60;92.90;;;;;;2071721;28;20026;-68
2020/12/04 01:04:57;;;;;;;100.72;46.85;;;-0.60;92.90;;;;;;2071740;28;20034;-68
2020/12/04 01:05:58;;;;;;;96.70;44.55;;;-0.60;92.80;;;;;;2071987;28;20022;-68
2020/12/04 01:07:04;;;;;;;93.68;45.30;;;-0.60;92.90;;;;;;2071967;28;20157;-68
2020/12/04 01:08:04;;;;;;;96.25;44.42;;;-0.60;92.90;;;;;;2071943;28;20034;-68
2020/12/04 01:09:06;;;;;;;93.03;44.35;;;-0.60;92.90;;;;;;2071379;28;20026;-68
2020/12/04 01:10:07;;;;;;;96.95;44.78;;;-0.60;92.90;;;;;;2071855;28;20434;-68
2020/12/04 01:11:08;;;;;;;92.18;44.38;;;-0.60;92.90;;;;;;2071806;28;20056;-68
2020/12/04 01:12:10;;;;;;;89.80;43.58;;;-0.60;92.90;;;;;;2071829;28;20022;-68
2020/12/04 01:13:10;;;;;;;94.32;44.80;;;-0.60;92.90;;;;;;2071910;28;20061;-68
2020/12/04 01:14:11;;;;;;;89.40;42.97;;;-0.60;92.90;;;;;;2071313;28;20038;-68
2020/12/04 01:15:12;;;;;;;88.45;43.17;;;-0.60;92.90;;;;;;2071331;28;20108;-68
2020/12/04 01:16:12;;;;;;;95.53;45.05;;;-0.50;92.90;;;;;;2072002;28;20029;-68
2020/12/04 01:17:14;;;;;;;95.97;45.83;;;-0.50;92.80;;;;;;2071312;28;20030;-68
2020/12/04 01:18:16;;;;;;;109.85;46.35;;;-0.50;92.80;;;;;;2071882;28;20499;-68
2020/12/04 01:19:17;;;;;;;93.07;43.58;;;-0.50;92.70;;;;;;2071018;28;20084;-68
2020/12/04 01:20:18;;;;;;;94.63;45.17;;;-0.50;92.70;;;;;;2071344;28;20113;-68
2020/12/04 01:21:18;;;;;;;93.28;45.08;;;-0.50;92.60;;;;;;2071767;28;20030;-68
2020/12/04 01:22:19;;;;;;;92.95;44.97;;;-0.50;92.70;;;;;;2071434;28;20061;-68
2020/12/04 01:23:20;;;;;;;96.43;44.22;;;-0.50;92.70;;;;;;2071123;28;20497;-68
2020/12/04 01:24:21;;;;;;;84.25;43.47;;;-0.50;92.70;;;;;;2071861;28;20488;-68
2020/12/04 01:25:21;;;;;;;85.88;42.90;;;-0.50;92.70;;;;;;2071521;28;20038;-68
2020/12/04 01:26:22;;;;;;;90.30;43.42;;;-0.50;92.70;;;;;;2071890;28;20034;-68
2020/12/04 01:27:23;;;;;;;88.43;43.22;;;-0.40;92.70;;;;;;2072086;28;20068;-68
2020/12/04 01:28:23;;;;;;;90.60;44.30;;;-0.40;92.70;;;;;;2071232;28;20040;-68
2020/12/04 01:29:24;;;;;;;84.68;42.08;;;-0.30;92.70;;;;;;2063166;28;20031;-68
2020/12/04 01:30:25;;;;;;;97.72;46.45;;;-0.30;92.60;;;;;;2071526;28;20049;-68
2020/12/04 01:31:25;;;;;;;84.80;41.67;;;-0.30;92.60;;;;;;2071010;28;20030;-68
2020/12/04 01:32:26;;;;;;;79.80;39.85;;;-0.30;92.60;;;;;;2062872;28;20117;-69
2020/12/04 01:33:27;;;;;;;80.47;40.42;;;-0.30;92.60;;;;;;2071437;28;20764;-68
2020/12/04 01:34:28;;;;;;;79.03;39.22;;;-0.30;92.60;;;;;;2072014;28;20468;-68
2020/12/04 01:35:28;;;;;;;79.78;39.75;;;-0.20;92.60;;;;;;2071994;28;20049;-68
2020/12/04 01:36:32;;;;;;;78.72;39.88;;;-0.20;92.60;;;;;;2071907;28;20038;-67
2020/12/04 01:37:33;;;;;;;74.68;38.85;;;-0.20;92.50;;;;;;2071957;28;20029;-68
2020/12/04 01:38:33;;;;;;;75.93;38.85;;;-0.20;92.60;;;;;;2071822;28;20194;-68
2020/12/04 01:39:34;;;;;;;80.38;37.28;;;-0.10;92.60;;;;;;2071307;28;20057;-69
2020/12/04 01:40:35;;;;;;;79.15;38.50;;;-0.20;92.70;;;;;;2071870;28;20034;-68
2020/12/04 01:41:36;;;;;;;72.72;37.15;;;-0.10;92.80;;;;;;2072097;28;20057;-68
2020/12/04 01:42:37;;;;;;;68.70;34.65;;;-0.10;92.80;;;;;;2071530;28;20022;-68
2020/12/04 01:43:37;;;;;;;68.13;34.42;;;-0.10;92.80;;;;;;2071846;28;20477;-68
2020/12/04 01:44:38;;;;;;;69.63;35.28;;;0.00;92.90;;;;;;2071926;28;20054;-68
2020/12/04 01:45:39;;;;;;;67.03;34.05;;;0.00;92.90;;;;;;2071911;28;20022;-67
2020/12/04 01:46:40;;;;;;;64.65;33.33;;;0.00;92.90;;;;;;2071603;28;20391;-67
2020/12/04 01:47:41;;;;;;;76.32;36.33;;;0.00;92.90;;;;;;2071430;28;20029;-68
2020/12/04 01:48:44;;;;;;;65.85;33.17;;;0.10;93.00;;;;;;2071580;28;20093;-68
2020/12/04 01:49:45;;;;;;;62.97;32.70;;;0.10;92.90;;;;;;2071530;28;20041;-68
2020/12/04 01:50:46;;;;;;;63.67;32.67;;;0.10;93.00;;;;;;2071880;28;20104;-69
2020/12/04 01:51:49;;;;;;;61.70;32.22;;;0.10;93.00;;;;;;2072073;28;20424;-68
2020/12/04 01:52:51;;;;;;;63.22;31.73;;;0.20;93.10;;;;;;2071444;28;20092;-68
2020/12/04 01:53:52;;;;;;;63.97;32.45;;;0.20;93.10;;;;;;2071160;28;20026;-68
2020/12/04 01:54:53;;;;;;;67.70;33.90;;;0.20;93.10;;;;;;2071189;28;20100;-68
2020/12/04 01:55:54;;;;;;;59.75;31.25;;;0.20;93.10;;;;;;2071369;28;20033;-68
2020/12/04 01:56:55;;;;;;;62.08;31.80;;;0.30;93.20;;;;;;2071305;28;20026;-68
2020/12/04 01:57:56;;;;;;;63.47;32.30;;;0.30;93.20;;;;;;2071783;28;20029;-68
2020/12/04 01:58:57;;;;;;;60.30;31.50;;;0.30;93.10;;;;;;2070986;28;20448;-68
2020/12/04 01:59:58;;;;;;;62.80;31.67;;;0.30;93.50;;;;;;2070961;28;20109;-68
2020/12/04 02:00:59;;;;;;;60.05;31.02;;;0.30;93.10;;;;;;2071680;28;20018;-68
2020/12/04 02:02:18;;;;;;;64.25;32.45;;;0.40;93.20;;;;;;2071634;28;20026;-68
2020/12/04 02:03:18;;;;;;;60.08;30.77;;;0.40;93.20;;;;;;2070783;28;20025;-68
2020/12/04 02:04:19;;;;;;;60.90;31.73;;;0.40;93.20;;;;;;2070986;28;20057;-68
2020/12/04 02:05:20;;;;;;;62.35;31.02;;;0.40;93.20;;;;;;2070899;28;20026;-67
2020/12/04 02:06:27;;;;;;;64.53;32.13;;;0.40;93.20;;;;;;2071238;28;20205;-68
2020/12/04 02:07:37;;;;;;;63.03;32.50;;;0.50;93.20;;;;;;2071114;28;20508;-68
2020/12/04 02:08:45;;;;;;;63.03;31.42;;;0.40;93.20;;;;;;2071501;28;20026;-68
2020/12/04 02:09:51;;;;;;;62.83;32.58;;;0.50;93.30;;;;;;2070874;28;20026;-68
2020/12/04 02:11:05;;;;;;;63.05;32.38;;;0.50;93.40;;;;;;2071329;28;20643;-68
2020/12/04 02:12:15;;;;;;;61.50;31.42;;;0.60;93.30;;;;;;2071672;28;20022;-68
2020/12/04 02:13:17;;;;;;;61.42;30.98;;;0.60;93.50;;;;;;2071368;28;20078;-68
2020/12/04 02:14:19;;;;;;;63.22;32.30;;;0.60;93.20;;;;;;2072912;28;20030;-68
2020/12/04 02:15:20;;;;;;;63.25;33.47;;;0.60;93.20;;;;;;2073020;28;20010;-69
2020/12/04 02:16:22;;;;;;;64.45;33.22;;;0.60;93.20;;;;;;2072418;28;20113;-69
2020/12/04 02:17:31;;;;;;;62.67;32.75;;;0.60;93.20;;;;;;2072333;28;20371;-68
2020/12/04 02:18:36;;;;;;;65.57;33.47;;;0.70;93.30;;;;;;2072705;28;20072;-68
2020/12/04 02:19:42;;;;;;;64.10;32.47;;;0.70;93.20;;;;;;2072838;28;20053;-69
2020/12/04 02:20:43;;;;;;;63.60;32.05;;;0.70;93.20;;;;;;2073163;28;20030;-68
2020/12/04 02:21:45;;;;;;;64.05;33.40;;;0.80;93.20;;;;;;2073054;28;20030;-68
2020/12/04 02:22:45;;;;;;;65.43;34.08;;;0.80;93.10;;;;;;2072607;28;20112;-68
2020/12/04 02:23:48;;;;;;;66.78;34.47;;;0.70;93.10;;;;;;2073090;28;20032;-68
2020/12/04 02:24:53;;;;;;;63.33;32.53;;;0.80;93.20;;;;;;2072928;28;20080;-68
2020/12/04 02:25:57;;;;;;;64.90;32.88;;;0.80;93.10;;;;;;2073202;28;20097;-68
2020/12/04 02:27:01;;;;;;;63.80;32.88;;;0.80;93.10;;;;;;2072565;28;20030;-68
2020/12/04 02:28:02;;;;;;;68.32;34.63;;;0.90;93.10;;;;;;2073003;28;20026;-68
2020/12/04 02:29:03;;;;;;;65.63;33.38;;;0.80;93.10;;;;;;2072991;28;20060;-68
2020/12/04 02:30:04;;;;;;;64.18;32.78;;;0.90;93.10;;;;;;2072837;28;20101;-68
2020/12/04 02:31:06;;;;;;;64.90;33.55;;;0.80;93.10;;;;;;2072904;28;20378;-68
2020/12/04 02:32:13;;;;;;;66.28;33.08;;;0.90;93.10;;;;;;2073000;28;20036;-68
2020/12/04 02:33:14;;;;;;;64.10;32.88;;;0.90;93.10;;;;;;2072723;28;20022;-67
2020/12/04 02:34:15;;;;;;;65.40;33.33;;;0.90;93.10;;;;;;2072918;28;20053;-68
2020/12/04 02:35:15;;;;;;;67.00;34.25;;;0.90;93.10;;;;;;2071668;28;20054;-68
2020/12/04 02:36:16;;;;;;;66.10;33.20;;;0.90;93.20;;;;;;2072503;28;20029;-68
2020/12/04 02:37:17;;;;;;;60.17;31.50;;;0.90;93.20;;;;;;2072824;28;20033;-68
2020/12/04 02:38:18;;;;;;;64.25;32.03;;;0.90;93.30;;;;;;2073039;28;20026;-68
2020/12/04 02:39:18;;;;;;;60.58;31.98;;;0.90;93.30;;;;;;2072617;28;20042;-68
2020/12/04 02:40:20;;;;;;;63.15;33.47;;;0.90;93.20;;;;;;2072487;28;20109;-68
2020/12/04 02:41:21;;;;;;;62.83;32.80;;;0.90;93.20;;;;;;2072400;28;20149;-68
2020/12/04 02:42:21;;;;;;;65.13;33.35;;;0.90;93.20;;;;;;2073159;28;20034;-68
2020/12/04 02:43:23;;;;;;;64.88;33.38;;;0.90;93.20;;;;;;2072555;28;20058;-68
2020/12/04 02:44:23;;;;;;;61.65;32.35;;;1.00;93.30;;;;;;2073027;28;20032;-68
2020/12/04 02:45:24;;;;;;;60.70;32.35;;;0.90;93.30;;;;;;2072701;28;20029;-69
2020/12/04 02:46:25;;;;;;;63.30;32.20;;;1.00;93.30;;;;;;2073074;28;20029;-69
2020/12/04 02:47:26;;;;;;;62.17;32.28;;;1.00;93.30;;;;;;2072888;28;20489;-68
2020/12/04 02:48:26;;;;;;;60.30;31.52;;;1.00;93.20;;;;;;2072748;28;20397;-68
2020/12/04 02:49:27;;;;;;;59.35;31.08;;;1.00;93.10;;;;;;2072946;28;20033;-69
2020/12/04 02:50:28;;;;;;;64.07;32.67;;;1.00;93.10;;;;;;2073122;28;20030;-68
2020/12/04 02:51:28;;;;;;;63.10;32.10;;;1.10;93.20;;;;;;2072615;28;20061;-68
2020/12/04 02:52:29;;;;;;;63.67;33.03;;;1.10;93.20;;;;;;2072618;28;20049;-68
2020/12/04 02:53:30;;;;;;;61.13;31.70;;;1.10;93.20;;;;;;2072153;28;20464;-68
2020/12/04 02:54:30;;;;;;;61.80;32.78;;;1.10;93.10;;;;;;2072223;28;20041;-69
2020/12/04 02:55:32;;;;;;;58.88;31.10;;;1.10;93.10;;;;;;2072919;28;20022;-68
2020/12/04 02:56:32;;;;;;;59.88;31.92;;;1.10;93.10;;;;;;2072913;28;20025;-68
2020/12/04 02:57:33;;;;;;;59.60;32.05;;;1.10;93.10;;;;;;2072835;28;20044;-68
2020/12/04 02:58:34;;;;;;;60.65;32.45;;;1.20;93.00;;;;;;2073048;28;20030;-69
2020/12/04 02:59:34;;;;;;;61.92;32.25;;;1.20;93.00;;;;;;2072139;28;20449;-69
2020/12/04 03:00:35;;;;;;;62.58;32.80;;;1.10;93.00;;;;;;2072786;28;20084;-69
2020/12/04 03:01:36;;;;;;;60.33;32.30;;;1.10;93.10;;;;;;2072028;28;20088;-69
2020/12/04 03:02:37;;;;;;;61.50;32.45;;;1.20;93.10;;;;;;2063982;28;20121;-69
2020/12/04 03:03:38;;;;;;;58.50;31.50;;;1.20;93.10;;;;;;2072169;28;20022;-69
2020/12/04 03:04:38;;;;;;;58.55;32.30;;;1.20;93.10;;;;;;2072398;28;20032;-69
2020/12/04 03:05:39;;;;;;;61.97;32.90;;;1.20;93.10;;;;;;2064248;28;20500;-69
2020/12/04 03:06:40;;;;;;;61.13;31.83;;;1.20;93.10;;;;;;2071943;28;20037;-69
2020/12/04 03:07:41;;;;;;;64.65;32.50;;;1.20;93.10;;;;;;2072313;28;20473;-69
2020/12/04 03:08:41;;;;;;;59.33;31.40;;;1.20;93.10;;;;;;2072160;28;20049;-68
2020/12/04 03:09:42;;;;;;;58.03;31.55;;;1.20;93.10;;;;;;2072622;28;20088;-68
2020/12/04 03:10:43;;;;;;;62.92;32.03;;;1.20;93.10;;;;;;2072721;28;20548;-68
2020/12/04 03:11:43;;;;;;;59.65;31.52;;;1.20;93.10;;;;;;2064060;28;20018;-68
2020/12/04 03:12:44;;;;;;;62.85;31.92;;;1.20;93.10;;;;;;2064041;28;20707;-68
2020/12/04 03:13:45;;;;;;;59.55;31.88;;;1.20;93.10;;;;;;2072775;28;20374;-68
2020/12/04 03:14:46;;;;;;;60.30;32.70;;;1.20;93.10;;;;;;2072662;28;20026;-69
2020/12/04 03:15:46;;;;;;;60.08;32.60;;;1.20;93.20;;;;;;2072199;28;20030;-69
2020/12/04 03:16:48;;;;;;;61.70;32.38;;;1.20;93.10;;;;;;2071904;28;20462;-69
2020/12/04 03:17:49;;;;;;;58.97;32.90;;;1.20;93.20;;;;;;2072724;28;20057;-69
2020/12/04 03:18:49;;;;;;;62.03;33.33;;;1.20;93.10;;;;;;2072215;28;20461;-69
2020/12/04 03:19:50;;;;;;;65.43;32.88;;;1.30;93.20;;;;;;2072161;28;20033;-68
2020/12/04 03:20:50;;;;;;;62.67;33.25;;;1.30;93.20;;;;;;2072746;28;20026;-69
2020/12/04 03:21:51;;;;;;;63.38;33.28;;;1.20;93.10;;;;;;2072613;28;20076;-69
2020/12/04 03:22:52;;;;;;;64.07;33.45;;;1.30;93.20;;;;;;2071859;28;20030;-69
2020/12/04 03:23:52;;;;;;;62.08;33.55;;;1.20;93.20;;;;;;2072120;28;20112;-68
2020/12/04 03:24:53;;;;;;;61.17;32.90;;;1.20;93.20;;;;;;2071664;28;20113;-68
2020/12/04 03:25:55;;;;;;;64.25;34.70;;;1.20;93.30;;;;;;2071971;28;20026;-68
2020/12/04 03:26:55;;;;;;;62.25;33.92;;;1.20;93.20;;;;;;2072748;28;20029;-68
2020/12/04 03:27:56;;;;;;;59.00;32.33;;;1.20;93.30;;;;;;2072030;28;20030;-68
2020/12/04 03:28:57;;;;;;;61.97;33.35;;;1.20;93.30;;;;;;2071895;28;20026;-69
2020/12/04 03:29:57;;;;;;;65.40;34.17;;;1.20;93.30;;;;;;2072504;28;20132;-68
2020/12/04 03:30:59;;;;;;;58.55;31.73;;;1.20;93.30;;;;;;2072035;28;20080;-68
2020/12/04 03:32:00;;;;;;;59.88;32.85;;;1.20;93.30;;;;;;2072132;28;20030;-68
2020/12/04 03:33:00;;;;;;;59.53;32.33;;;1.30;93.30;;;;;;2071960;28;20477;-68
2020/12/04 03:34:01;;;;;;;59.55;31.92;;;1.20;93.30;;;;;;2072683;28;20058;-68
2020/12/04 03:35:02;;;;;;;60.00;31.63;;;1.30;93.30;;;;;;2072753;28;20500;-68
2020/12/04 03:36:03;;;;;;;60.55;32.72;;;1.30;93.30;;;;;;2072497;28;20129;-68
2020/12/04 03:37:03;;;;;;;59.45;32.03;;;1.30;93.30;;;;;;2072545;28;20025;-68
2020/12/04 03:38:04;;;;;;;60.22;31.65;;;1.30;93.20;;;;;;2072466;28;20060;-68
2020/12/04 03:39:05;;;;;;;58.40;31.23;;;1.30;93.20;;;;;;2072386;28;20037;-68
2020/12/04 03:40:05;;;;;;;58.08;31.35;;;1.30;93.30;;;;;;2071973;28;20503;-68
2020/12/04 03:41:06;;;;;;;58.60;31.08;;;1.30;93.30;;;;;;2072595;28;20405;-68
2020/12/04 03:42:07;;;;;;;57.78;31.05;;;1.30;93.30;;;;;;2072080;28;20030;-68
2020/12/04 03:43:07;;;;;;;59.67;31.33;;;1.30;93.20;;;;;;2071587;28;20116;-68
2020/12/04 03:44:08;;;;;;;56.47;29.95;;;1.30;93.20;;;;;;2071550;28;20127;-68
2020/12/04 03:45:09;;;;;;;58.38;31.73;;;1.40;93.20;;;;;;2071843;28;20041;-69
2020/12/04 03:46:13;;;;;;;60.10;31.35;;;1.30;93.20;;;;;;2072519;28;20038;-68
2020/12/04 03:47:13;;;;;;;58.08;31.30;;;1.40;93.10;;;;;;2072522;28;20125;-68
2020/12/04 03:48:14;;;;;;;59.03;32.05;;;1.40;93.10;;;;;;2072104;28;20026;-68
2020/12/04 03:49:16;;;;;;;57.63;32.20;;;1.40;93.20;;;;;;2071705;28;20029;-68
2020/12/04 03:50:16;;;;;;;58.67;31.95;;;1.40;93.20;;;;;;2071311;28;20032;-69
2020/12/04 03:51:17;;;;;;;60.33;33.08;;;1.40;93.20;;;;;;2072434;28;20036;-69
2020/12/04 03:52:20;;;;;;;56.75;31.85;;;1.30;93.20;;;;;;2072390;28;20105;-69
2020/12/04 03:53:20;;;;;;;59.45;32.15;;;1.40;93.30;;;;;;2072096;28;20440;-69
2020/12/04 03:54:21;;;;;;;60.72;31.63;;;1.40;93.30;;;;;;2072361;28;20105;-69
2020/12/04 03:55:22;;;;;;;55.50;31.33;;;1.30;93.30;;;;;;2071743;28;20622;-69
2020/12/04 03:56:23;;;;;;;59.75;32.25;;;1.30;93.30;;;;;;2071868;28;20034;-69
2020/12/04 03:57:23;;;;;;;57.30;31.95;;;1.40;93.30;;;;;;2072353;28;20033;-69
2020/12/04 03:58:24;;;;;;;57.88;31.95;;;1.40;93.30;;;;;;2072046;28;20443;-69
2020/12/04 03:59:25;;;;;;;59.40;31.65;;;1.40;93.30;;;;;;2071383;28;20120;-69
2020/12/04 04:00:25;;;;;;;57.72;31.73;;;1.40;93.40;;;;;;2071838;28;20537;-69
2020/12/04 04:01:26;;;;;;;58.45;32.15;;;1.30;93.30;;;;;;2072457;28;20037;-68
2020/12/04 04:02:27;;;;;;;59.08;31.63;;;1.40;93.30;;;;;;2071394;28;20034;-69
2020/12/04 04:03:28;;;;;;;56.97;31.92;;;1.40;93.40;;;;;;2071902;28;20110;-69
2020/12/04 04:04:28;;;;;;;56.65;31.15;;;1.40;93.40;;;;;;2072423;28;20077;-69
2020/12/04 04:05:29;;;;;;;57.28;31.40;;;1.40;93.30;;;;;;2071995;28;20033;-69
2020/12/04 04:06:30;;;;;;;55.40;30.38;;;1.50;93.20;;;;;;2071946;28;20034;-69
2020/12/04 04:07:30;;;;;;;55.13;31.00;;;1.50;93.10;;;;;;2072156;28;20342;-69
2020/12/04 04:08:31;;;;;;;55.65;31.27;;;1.50;93.10;;;;;;2072262;28;20030;-68
2020/12/04 04:09:32;;;;;;;54.63;30.13;;;1.50;93.10;;;;;;2072077;28;20026;-69
2020/12/04 04:10:32;;;;;;;55.25;30.25;;;1.50;93.10;;;;;;2072408;28;20500;-69
2020/12/04 04:11:33;;;;;;;57.42;31.58;;;1.50;93.10;;;;;;2071663;28;20030;-69
2020/12/04 04:12:34;;;;;;;55.17;31.45;;;1.50;93.10;;;;;;2071296;28;20036;-69
2020/12/04 04:13:36;;;;;;;54.85;30.42;;;1.50;93.20;;;;;;2072154;28;20038;-69
2020/12/04 04:14:37;;;;;;;56.13;30.48;;;1.40;93.20;;;;;;2071913;28;20034;-69
2020/12/04 04:15:37;;;;;;;53.58;30.23;;;1.50;93.20;;;;;;2072465;28;20052;-69
2020/12/04 04:16:38;;;;;;;55.10;30.75;;;1.40;93.20;;;;;;2072328;28;20030;-70
2020/12/04 04:17:39;;;;;;;52.35;29.73;;;1.40;93.20;;;;;;2072437;28;20026;-69
2020/12/04 04:18:39;;;;;;;54.50;30.45;;;1.50;93.20;;;;;;2072252;28;20099;-69
2020/12/04 04:19:40;;;;;;;53.95;30.65;;;1.50;93.10;;;;;;2072167;28;20032;-69
2020/12/04 04:20:41;;;;;;;55.15;29.83;;;1.50;93.00;;;;;;2072373;28;20049;-69
2020/12/04 04:21:41;;;;;;;52.47;30.00;;;1.50;93.00;;;;;;2072282;28;20057;-69
2020/12/04 04:22:42;;;;;;;51.45;29.85;;;1.50;93.00;;;;;;2072061;28;20100;-69
2020/12/04 04:23:43;;;;;;;54.03;29.83;;;1.50;93.00;;;;;;2072208;28;20029;-69
2020/12/04 04:24:43;;;;;;;51.90;30.17;;;1.50;93.00;;;;;;2071686;28;20394;-69
2020/12/04 04:25:44;;;;;;;51.53;28.70;;;1.50;93.10;;;;;;2071724;28;20041;-69
2020/12/04 04:26:48;;;;;;;51.92;29.02;;;1.50;93.00;;;;;;2071832;28;20028;-69
2020/12/04 04:27:48;;;;;;;52.22;29.95;;;1.50;93.00;;;;;;2072118;28;20030;-69
2020/12/04 04:28:49;;;;;;;54.17;29.77;;;1.50;93.00;;;;;;2072290;28;20022;-69
2020/12/04 04:29:50;;;;;;;54.05;30.40;;;1.50;93.00;;;;;;2071921;28;20036;-69
2020/12/04 04:30:51;;;;;;;52.20;29.75;;;1.50;93.10;;;;;;2072276;28;20524;-69
2020/12/04 04:31:52;;;;;;;51.05;30.08;;;1.50;93.10;;;;;;2072135;28;20025;-69
2020/12/04 04:32:52;;;;;;;54.40;29.75;;;1.40;93.10;;;;;;2063127;28;20126;-69
2020/12/04 04:33:53;;;;;;;50.83;28.98;;;1.40;93.10;;;;;;2063478;28;20061;-69
2020/12/04 04:34:53;;;;;;;51.08;29.00;;;1.50;93.20;;;;;;2071724;28;20054;-69
2020/12/04 04:35:54;;;;;;;48.70;28.05;;;1.50;93.20;;;;;;2071996;28;20029;-68
2020/12/04 04:36:55;;;;;;;45.55;27.60;;;1.40;93.20;;;;;;2071098;28;20405;-69
2020/12/04 04:37:56;;;;;;;46.53;27.63;;;1.40;93.20;;;;;;2071485;28;20030;-68
2020/12/04 04:38:57;;;;;;;49.15;28.17;;;1.50;93.20;;;;;;2071941;28;20473;-69
2020/12/04 04:39:58;;;;;;;46.90;27.73;;;1.50;93.20;;;;;;2072010;28;20079;-69
2020/12/04 04:40:59;;;;;;;47.92;27.23;;;1.50;93.20;;;;;;2072192;28;20026;-69
2020/12/04 04:41:59;;;;;;;50.75;28.67;;;1.50;93.20;;;;;;2071856;28;20176;-69
2020/12/04 04:43:14;;;;;;;48.97;28.27;;;1.50;93.20;;;;;;2071711;28;20393;-69
2020/12/04 04:44:15;;;;;;;49.28;28.48;;;1.50;93.20;;;;;;2072017;28;20412;-69
2020/12/04 04:45:17;;;;;;;48.10;27.92;;;1.50;93.20;;;;;;2072238;28;20025;-69
2020/12/04 04:46:40;;;;;;;49.55;28.42;;;1.50;93.20;;;;;;2071630;28;20029;-69
2020/12/04 04:47:44;;;;;;;47.22;27.85;;;1.50;93.20;;;;;;2068241;28;20034;-69
2020/12/04 04:48:52;;;;;;;50.13;28.48;;;1.50;93.30;;;;;;2071956;28;20029;-69
2020/12/04 04:49:53;;;;;;;50.05;28.83;;;1.50;93.30;;;;;;2071862;28;20393;-69
2020/12/04 04:50:56;;;;;;;49.78;28.70;;;1.50;93.30;;;;;;2071956;28;20026;-69
2020/12/04 04:51:57;;;;;;;52.95;28.85;;;1.50;93.30;;;;;;2071948;28;20156;-69
2020/12/04 04:52:58;;;;;;;51.97;28.83;;;1.50;93.30;;;;;;2071835;28;20033;-69
2020/12/04 04:54:02;;;;;;;49.97;28.92;;;1.40;93.40;;;;;;2071849;28;20129;-69
2020/12/04 04:55:04;;;;;;;50.20;29.00;;;1.40;93.50;;;;;;2072179;28;20041;-69
2020/12/04 04:56:05;;;;;;;51.45;28.77;;;1.40;93.50;;;;;;2072148;28;20132;-69
2020/12/04 04:57:08;;;;;;;52.03;29.58;;;1.40;93.80;;;;;;2072200;28;20033;-70
2020/12/04 04:58:10;;;;;;;47.30;28.23;;;1.40;94.00;;;;;;2071465;28;20030;-70
2020/12/04 04:59:11;;;;;;;51.30;28.55;;;1.40;94.00;;;;;;2071655;28;20414;-70
2020/12/04 05:00:11;;;;;;;56.92;30.25;;;1.50;94.30;;;;;;2071935;28;20029;-69
2020/12/04 05:01:12;;;;;;;51.72;29.25;;;1.50;94.30;;;;;;2071533;28;20141;-70
2020/12/04 05:02:14;;;;;;;49.15;28.52;;;1.50;94.20;;;;;;2071115;28;20038;-69
2020/12/04 05:03:15;;;;;;;49.90;28.65;;;1.50;93.90;;;;;;2071829;28;20448;-70
2020/12/04 05:04:17;;;;;;;48.83;28.98;;;1.50;93.70;;;;;;2071414;28;20026;-69
2020/12/04 05:05:18;;;;;;;49.78;28.65;;;1.40;93.70;;;;;;2063363;28;20038;-70
2020/12/04 05:06:32;;;;;;;51.30;29.33;;;1.40;93.70;;;;;;2071218;28;20435;-70
2020/12/04 05:07:34;;;;;;;52.22;29.02;;;1.40;93.80;;;;;;2077986;28;20091;-70
2020/12/04 05:08:35;;;;;;;52.85;29.33;;;1.40;93.90;;;;;;2071971;28;20112;-69
2020/12/04 05:09:36;;;;;;;49.63;29.35;;;1.40;94.00;;;;;;2071171;28;20029;-69
2020/12/04 05:10:36;;;;;;;51.67;28.95;;;1.40;94.00;;;;;;2070622;28;20026;-70
2020/12/04 05:11:37;;;;;;;51.45;29.35;;;1.40;94.00;;;;;;2071167;28;20075;-70
2020/12/04 05:12:40;;;;;;;50.45;29.58;;;1.40;94.10;;;;;;2071108;28;20121;-70
2020/12/04 05:13:40;;;;;;;53.40;29.52;;;1.40;94.20;;;;;;2071421;28;20034;-69
2020/12/04 05:14:41;;;;;;;51.53;30.00;;;1.40;94.20;;;;;;2072071;28;20018;-70